createdAt,value
2022-11-20T00:00:46.982Z,1029.3
2022-11-20T00:02:30.727Z,1023.9
2022-11-20T00:04:14.408Z,1021.1
2022-11-20T00:05:58.097Z,1014.4
2022-11-20T00:07:41.802Z,1008.1
2022-11-20T00:09:25.504Z,1002.8
2022-11-20T00:11:09.213Z,999.4
2022-11-20T00:12:52.892Z,997.9
2022-11-20T00:14:36.628Z,996.1
2022-11-20T00:16:20.322Z,992.9
2022-11-20T00:18:04.013Z,987.3
2022-11-20T00:19:47.720Z,986
2022-11-20T00:21:31.419Z,980.5
2022-11-20T00:23:15.110Z,976.9
2022-11-20T00:24:58.828Z,972.7
2022-11-20T00:26:42.541Z,970
2022-11-20T00:28:26.222Z,967.5
2022-11-20T00:30:09.927Z,964
2022-11-20T00:31:53.622Z,961.1
2022-11-20T00:33:37.332Z,959.2
2022-11-20T00:35:21.042Z,953
2022-11-20T00:37:04.747Z,948.3
2022-11-20T00:38:48.448Z,942.7
2022-11-20T00:40:32.138Z,942.8
2022-11-20T00:42:15.842Z,936.9
2022-11-20T00:43:59.551Z,930.8
2022-11-20T00:45:43.257Z,927.5
2022-11-20T00:47:26.977Z,921.5
2022-11-20T00:49:10.647Z,916.9
2022-11-20T00:50:54.362Z,914.8
2022-11-20T00:52:38.062Z,910
2022-11-20T00:54:21.795Z,902.7
2022-11-20T00:56:05.454Z,901.8
2022-11-20T00:57:49.173Z,902.6
2022-11-20T00:59:32.863Z,899.8
2022-11-20T01:01:16.573Z,897.5
2022-11-20T01:03:00.259Z,892.5
2022-11-20T01:04:43.964Z,889.5
2022-11-20T01:06:27.686Z,885.2
2022-11-20T01:08:11.373Z,882.9
2022-11-20T01:09:55.084Z,878.1
2022-11-20T01:11:38.781Z,869.1
2022-11-20T01:13:22.471Z,866.8
2022-11-20T01:15:06.180Z,865.2
2022-11-20T01:16:49.868Z,863.6
2022-11-20T01:18:33.580Z,863.1
2022-11-20T01:20:17.274Z,858.8
2022-11-20T01:22:00.979Z,855.7
2022-11-20T01:23:44.692Z,851.1
2022-11-20T01:25:28.382Z,848.3
2022-11-20T01:27:12.130Z,843
2022-11-20T01:28:55.808Z,840.3
2022-11-20T01:30:39.507Z,839.5
2022-11-20T01:32:23.218Z,837
2022-11-20T01:34:06.895Z,834.3
2022-11-20T01:35:50.612Z,832.3
2022-11-20T01:37:34.324Z,826.5
2022-11-20T01:39:17.990Z,820.9
2022-11-20T01:41:01.994Z,817.8
2022-11-20T01:42:45.672Z,814.8
2022-11-20T01:44:29.124Z,809.4
2022-11-20T01:46:12.809Z,806.3
2022-11-20T01:47:56.530Z,802
2022-11-20T01:49:40.229Z,799.3
2022-11-20T01:51:23.924Z,797.1
2022-11-20T01:53:07.624Z,796.2
2022-11-20T01:54:51.314Z,796.1
2022-11-20T01:56:35.024Z,798.9
2022-11-20T01:58:18.725Z,797.8
2022-11-20T02:00:02.414Z,795.6
2022-11-20T02:01:46.141Z,790.6
2022-11-20T02:03:29.830Z,789.2
2022-11-20T02:05:13.527Z,786
2022-11-20T02:06:57.220Z,782.3
2022-11-20T02:08:40.940Z,778.3
2022-11-20T02:10:24.635Z,774.3
2022-11-20T02:12:08.361Z,772.4
2022-11-20T02:13:52.035Z,770.2
2022-11-20T02:15:35.768Z,769.9
2022-11-20T02:17:19.461Z,769.4
2022-11-20T02:19:03.154Z,768.8
2022-11-20T02:20:46.852Z,767.4
2022-11-20T02:22:30.562Z,764.7
2022-11-20T02:24:14.270Z,764.9
2022-11-20T02:25:57.981Z,765.8
2022-11-20T02:27:41.675Z,764.3
2022-11-20T02:29:25.377Z,760.7
2022-11-20T02:31:09.074Z,754
2022-11-20T02:32:52.783Z,751.2
2022-11-20T02:34:36.486Z,746.8
2022-11-20T02:36:20.167Z,742
2022-11-20T02:38:03.921Z,739.8
2022-11-20T02:39:47.569Z,736.7
2022-11-20T02:41:31.290Z,733.9
2022-11-20T02:43:14.973Z,735.8
2022-11-20T02:44:58.676Z,734.3
2022-11-20T02:46:42.384Z,731.1
2022-11-20T02:48:26.088Z,731.1
2022-11-20T02:50:09.788Z,727.3
2022-11-20T02:51:53.500Z,724.8
2022-11-20T02:53:37.193Z,723.8
2022-11-20T02:55:20.906Z,723.1
2022-11-20T02:57:04.587Z,719.9
2022-11-20T02:58:48.289Z,719.2
2022-11-20T03:00:31.976Z,714.7
2022-11-20T03:02:15.697Z,715.2
2022-11-20T03:03:59.389Z,715.5
2022-11-20T03:05:43.085Z,709.4
2022-11-20T03:07:26.798Z,708.8
2022-11-20T03:09:10.485Z,709.4
2022-11-20T03:10:54.182Z,707.6
2022-11-20T03:12:37.890Z,703.2
2022-11-20T03:14:21.596Z,701.8
2022-11-20T03:16:05.302Z,705.2
2022-11-20T03:17:48.989Z,705.6
2022-11-20T03:19:32.695Z,702.7
2022-11-20T03:21:16.404Z,700.5
2022-11-20T03:23:00.103Z,696.9
2022-11-20T03:24:43.812Z,694.1
2022-11-20T03:26:27.528Z,692.1
2022-11-20T03:28:11.233Z,689.7
2022-11-20T03:29:54.938Z,685.4
2022-11-20T03:31:38.638Z,681.9
2022-11-20T03:33:22.323Z,679.4
2022-11-20T03:35:06.028Z,677.1
2022-11-20T03:36:49.725Z,671.9
2022-11-20T03:38:33.436Z,671.2
2022-11-20T03:40:17.131Z,668.8
2022-11-20T03:42:00.830Z,665.1
2022-11-20T03:43:44.550Z,664.8
2022-11-20T03:45:28.246Z,664.4
2022-11-20T03:47:11.929Z,663.6
2022-11-20T03:48:55.633Z,663.3
2022-11-20T03:50:39.328Z,665.1
2022-11-20T03:52:23.037Z,663.3
2022-11-20T03:54:06.725Z,662.3
2022-11-20T03:55:50.430Z,662.3
2022-11-20T03:57:34.135Z,659.2
2022-11-20T03:59:17.859Z,658.9
2022-11-20T04:01:01.549Z,657.1
2022-11-20T04:02:45.241Z,656.4
2022-11-20T04:04:28.941Z,654.7
2022-11-20T04:06:12.654Z,652.3
2022-11-20T04:07:56.357Z,649.4
2022-11-20T04:09:40.056Z,648.7
2022-11-20T04:11:23.752Z,649.1
2022-11-20T04:13:07.461Z,648.2
2022-11-20T04:14:51.195Z,645.1
2022-11-20T04:16:34.864Z,642.7
2022-11-20T04:18:18.556Z,640.7
2022-11-20T04:20:02.277Z,636.3
2022-11-20T04:21:45.977Z,634
2022-11-20T04:23:29.665Z,629.4
2022-11-20T04:25:13.378Z,627.2
2022-11-20T04:26:57.082Z,627
2022-11-20T04:28:40.804Z,626.7
2022-11-20T04:30:24.489Z,628.4
2022-11-20T04:32:08.193Z,628.4
2022-11-20T04:33:51.902Z,625.1
2022-11-20T04:35:35.595Z,625.5
2022-11-20T04:37:19.288Z,626
2022-11-20T04:39:02.992Z,621.7
2022-11-20T04:40:46.697Z,621.2
2022-11-20T04:42:30.419Z,622
2022-11-20T04:44:14.093Z,622.6
2022-11-20T04:45:57.804Z,622.2
2022-11-20T04:47:41.503Z,619.8
2022-11-20T04:49:25.207Z,617
2022-11-20T04:51:08.894Z,614.1
2022-11-20T04:52:52.605Z,612.1
2022-11-20T04:54:36.299Z,615
2022-11-20T04:56:19.998Z,615.9
2022-11-20T04:58:03.712Z,614.1
2022-11-20T04:59:47.420Z,611.5
2022-11-20T05:01:31.128Z,609.1
2022-11-20T05:03:14.820Z,608.9
2022-11-20T05:04:58.530Z,604.6
2022-11-20T05:06:42.235Z,602
2022-11-20T05:08:25.926Z,602.8
2022-11-20T05:10:09.634Z,601.3
2022-11-20T05:11:53.339Z,600.9
2022-11-20T05:13:37.019Z,600.3
2022-11-20T05:15:20.730Z,597.3
2022-11-20T05:17:04.441Z,594.6
2022-11-20T05:18:48.139Z,593.9
2022-11-20T05:20:31.827Z,593.2
2022-11-20T05:22:15.534Z,594.5
2022-11-20T05:23:59.250Z,596
2022-11-20T05:27:26.636Z,598.9
2022-11-20T05:29:10.329Z,597.3
2022-11-20T05:30:54.047Z,597.4
2022-11-20T05:32:37.756Z,594.5
2022-11-20T05:34:21.448Z,594.1
2022-11-20T05:36:05.137Z,589.6
2022-11-20T05:37:48.941Z,586.3
2022-11-20T05:39:32.553Z,583.3
2022-11-20T05:41:16.253Z,582.1
2022-11-20T05:42:59.938Z,581.4
2022-11-20T05:44:43.652Z,582.1
2022-11-20T05:46:27.351Z,584.8
2022-11-20T05:48:11.059Z,582.7
2022-11-20T05:49:54.747Z,581
2022-11-20T05:51:38.447Z,581.6
2022-11-20T05:53:22.164Z,583.7
2022-11-20T05:55:05.862Z,582.6
2022-11-20T05:56:49.562Z,581.5
2022-11-20T05:58:33.261Z,577.9
2022-11-20T06:00:16.958Z,573.5
2022-11-20T06:02:00.668Z,573.7
2022-11-20T06:03:44.352Z,571.9
2022-11-20T06:05:28.074Z,568.4
2022-11-20T06:07:11.772Z,569
2022-11-20T06:08:55.479Z,566.5
2022-11-20T06:10:39.174Z,566.1
2022-11-20T06:12:22.877Z,565.1
2022-11-20T06:14:06.581Z,564.1
2022-11-20T06:15:50.296Z,561.5
2022-11-20T06:17:33.994Z,559.3
2022-11-20T06:19:17.699Z,560.4
2022-11-20T06:21:01.397Z,561.5
2022-11-20T06:22:45.128Z,558.6
2022-11-20T06:24:28.801Z,558.7
2022-11-20T06:26:12.520Z,559
2022-11-20T06:27:56.194Z,558.7
2022-11-20T06:29:39.897Z,558.3
2022-11-20T06:31:23.603Z,558.5
2022-11-20T06:33:07.293Z,557.5
2022-11-20T06:34:50.996Z,555.8
2022-11-20T06:36:34.710Z,555.3
2022-11-20T06:38:18.395Z,557.4
2022-11-20T06:40:02.119Z,558.1
2022-11-20T06:41:45.796Z,557.2
2022-11-20T06:43:29.507Z,557.5
2022-11-20T06:45:13.207Z,558.9
2022-11-20T06:46:56.912Z,558.4
2022-11-20T06:48:40.614Z,558.9
2022-11-20T06:50:24.326Z,558.6
2022-11-20T06:52:08.050Z,560.4
2022-11-20T06:53:51.735Z,561.2
2022-11-20T06:55:35.433Z,562.9
2022-11-20T06:57:19.142Z,564.2
2022-11-20T06:59:02.841Z,565.1
2022-11-20T07:00:46.546Z,566.1
2022-11-20T07:02:30.251Z,568.8
2022-11-20T07:04:13.951Z,568.3
2022-11-20T07:05:57.681Z,565.4
2022-11-20T07:07:41.348Z,563.4
2022-11-20T07:09:25.032Z,563.2
2022-11-20T07:11:08.716Z,561.8
2022-11-20T07:12:52.434Z,558.6
2022-11-20T07:14:36.147Z,558.3
2022-11-20T07:16:19.838Z,558.8
2022-11-20T07:19:47.236Z,561
2022-11-20T07:21:30.949Z,561.1
2022-11-20T07:23:14.644Z,563.9
2022-11-20T07:24:58.341Z,565.7
2022-11-20T07:26:42.066Z,564.3
2022-11-20T07:28:25.740Z,568.4
2022-11-20T07:30:09.448Z,568.3
2022-11-20T07:31:53.191Z,572.3
2022-11-20T07:33:36.874Z,577.9
2022-11-20T07:35:20.579Z,579
2022-11-20T07:37:04.257Z,578.1
2022-11-20T07:38:47.971Z,575.2
2022-11-20T07:40:31.671Z,583.9
2022-11-20T07:42:15.375Z,610.5
2022-11-20T07:43:59.084Z,625.8
2022-11-20T07:45:42.766Z,629.8
2022-11-20T07:47:26.490Z,633.6
2022-11-20T07:49:10.169Z,637.6
2022-11-20T07:50:53.896Z,645
2022-11-20T07:52:37.584Z,648.8
2022-11-20T07:54:21.270Z,643.1
2022-11-20T07:56:04.991Z,635.7
2022-11-20T07:57:48.688Z,629.3
2022-11-20T07:59:32.378Z,622.8
2022-11-20T08:01:16.088Z,618.7
2022-11-20T08:02:59.778Z,618.5
2022-11-20T08:04:43.481Z,619.3
2022-11-20T08:06:27.214Z,617.6
2022-11-20T08:08:10.884Z,615.5
2022-11-20T08:09:54.591Z,617.1
2022-11-20T08:11:38.421Z,617
2022-11-20T08:13:22.037Z,617
2022-11-20T08:15:05.697Z,616.5
2022-11-20T08:16:49.438Z,614.3
2022-11-20T08:18:33.115Z,614.6
2022-11-20T08:20:16.836Z,614.5
2022-11-20T08:22:00.570Z,613.8
2022-11-20T08:23:44.204Z,615.7
2022-11-20T08:25:27.950Z,617.3
2022-11-20T08:27:11.602Z,617.1
2022-11-20T08:28:55.320Z,618.1
2022-11-20T08:30:39.010Z,620.5
2022-11-20T08:32:22.695Z,621.8
2022-11-20T08:34:06.437Z,624.3
2022-11-20T08:35:50.096Z,622.6
2022-11-20T08:37:33.807Z,622.3
2022-11-20T08:39:17.495Z,622.6
2022-11-20T08:41:01.231Z,619.6
2022-11-20T08:42:44.910Z,618.3
2022-11-20T08:44:28.615Z,617.9
2022-11-20T08:46:12.321Z,615.7
2022-11-20T08:47:56.013Z,615
2022-11-20T08:49:39.719Z,616.9
2022-11-20T08:51:23.437Z,620.8
2022-11-20T08:53:07.147Z,620.7
2022-11-20T08:54:50.831Z,618.9
2022-11-20T08:56:34.530Z,617.9
2022-11-20T08:58:18.308Z,618.6
2022-11-20T09:00:01.931Z,617.4
2022-11-20T09:01:45.641Z,616.9
2022-11-20T09:03:29.469Z,616.1
2022-11-20T09:05:13.188Z,615.6
2022-11-20T09:06:56.972Z,615.2
2022-11-20T09:08:40.510Z,612.6
2022-11-20T09:10:24.376Z,611.2
2022-11-20T09:12:08.000Z,609
2022-11-20T09:13:51.531Z,605.6
2022-11-20T09:15:35.460Z,606.2
2022-11-20T09:17:18.966Z,607
2022-11-20T09:19:02.806Z,606.4
2022-11-20T09:20:46.492Z,602.9
2022-11-20T09:22:30.052Z,600.1
2022-11-20T09:24:13.917Z,600.8
2022-11-20T09:25:57.645Z,600.2
2022-11-20T09:27:41.326Z,596.6
2022-11-20T09:29:25.044Z,596.6
2022-11-20T09:31:08.562Z,596.6
2022-11-20T09:32:52.281Z,595.2
2022-11-20T09:34:36.089Z,596.2
2022-11-20T09:36:19.681Z,597.7
2022-11-20T09:38:03.450Z,597.4
2022-11-20T09:39:47.245Z,595.5
2022-11-20T09:41:30.965Z,593.6
2022-11-20T09:43:14.629Z,595.1
2022-11-20T09:44:58.351Z,596.9
2022-11-20T09:46:42.062Z,599.7
2022-11-20T09:48:25.572Z,602.4
2022-11-20T09:50:09.565Z,601.5
2022-11-20T09:51:53.152Z,602.1
2022-11-20T09:53:36.861Z,604.5
2022-11-20T09:55:20.526Z,604.6
2022-11-20T09:57:04.253Z,608.3
2022-11-20T09:58:47.975Z,615.6
2022-11-20T10:00:31.570Z,620.1
2022-11-20T10:02:15.418Z,621.4
2022-11-20T10:03:59.045Z,626.9
2022-11-20T10:05:42.803Z,633.6
2022-11-20T10:07:26.490Z,639.7
2022-11-20T10:09:09.989Z,647
2022-11-20T10:10:53.942Z,671.4
2022-11-20T10:12:37.639Z,692.6
2022-11-20T10:14:21.286Z,705.1
2022-11-20T10:16:04.991Z,712.8
2022-11-20T10:17:48.502Z,723.7
2022-11-20T10:19:32.338Z,767.2
2022-11-20T10:21:16.098Z,798.8
2022-11-20T10:22:59.828Z,804.5
2022-11-20T10:24:43.491Z,805
2022-11-20T10:26:27.055Z,805.1
2022-11-20T10:28:10.924Z,809.7
2022-11-20T10:29:54.638Z,813.7
2022-11-20T10:31:38.237Z,815.8
2022-11-20T10:33:22.011Z,824.2
2022-11-20T10:35:05.519Z,831.3
2022-11-20T10:36:49.413Z,840.2
2022-11-20T10:38:33.105Z,843.6
2022-11-20T10:40:16.620Z,846.7
2022-11-20T10:42:00.516Z,852.3
2022-11-20T10:43:44.198Z,856.3
2022-11-20T10:45:27.905Z,865.7
2022-11-20T10:47:11.620Z,879.3
2022-11-20T10:48:55.341Z,881.8
2022-11-20T10:50:39.060Z,881.3
2022-11-20T10:52:22.802Z,878
2022-11-20T10:54:06.394Z,870.8
2022-11-20T10:55:50.152Z,864.3
2022-11-20T10:57:33.830Z,855.8
2022-11-20T10:59:17.443Z,852
2022-11-20T11:01:01.190Z,847.4
2022-11-20T11:02:44.915Z,844.1
2022-11-20T11:04:28.618Z,842.4
2022-11-20T11:06:12.324Z,840
2022-11-20T11:07:55.991Z,839.2
2022-11-20T11:09:39.729Z,834.2
2022-11-20T11:11:23.448Z,831.5
2022-11-20T11:13:07.127Z,829.4
2022-11-20T11:14:50.888Z,826.8
2022-11-20T11:16:34.555Z,827.6
2022-11-20T11:18:18.179Z,828.8
2022-11-20T11:20:01.892Z,827.1
2022-11-20T11:21:45.627Z,828.7
2022-11-20T11:23:29.243Z,827
2022-11-20T11:25:13.026Z,827.2
2022-11-20T11:26:56.758Z,827.4
2022-11-20T11:28:40.460Z,828.1
2022-11-20T11:30:24.115Z,828.6
2022-11-20T11:32:07.667Z,831.2
2022-11-20T11:33:51.567Z,835.9
2022-11-20T11:35:35.231Z,839.4
2022-11-20T11:37:18.774Z,841.7
2022-11-20T11:39:02.661Z,847
2022-11-20T11:40:46.401Z,850.3
2022-11-20T11:42:30.125Z,856.5
2022-11-20T11:44:13.570Z,859.6
2022-11-20T11:45:57.462Z,865.3
2022-11-20T11:47:41.160Z,871.7
2022-11-20T11:49:24.853Z,870.9
2022-11-20T11:51:08.555Z,870
2022-11-20T11:52:52.322Z,872.2
2022-11-20T11:54:35.983Z,873.9
2022-11-20T11:56:19.704Z,873.2
2022-11-20T11:58:03.325Z,877.1
2022-11-20T11:59:47.089Z,883.3
2022-11-20T12:01:30.726Z,889.2
2022-11-20T12:03:14.494Z,896.8
2022-11-20T12:04:58.159Z,909
2022-11-20T12:06:41.883Z,922.1
2022-11-20T12:08:25.521Z,933.3
2022-11-20T12:10:09.206Z,939.9
2022-11-20T12:11:52.848Z,941.3
2022-11-20T12:13:36.661Z,942
2022-11-20T12:15:20.379Z,948.8
2022-11-20T12:17:04.082Z,953.5
2022-11-20T12:18:47.821Z,956.1
2022-11-20T12:20:31.564Z,959
2022-11-20T12:22:15.222Z,965.3
2022-11-20T12:23:58.908Z,971.2
2022-11-20T12:25:42.626Z,974.9
2022-11-20T12:27:26.257Z,976.2
2022-11-20T12:29:09.841Z,976.9
2022-11-20T12:30:53.715Z,981.5
2022-11-20T12:32:37.402Z,986.3
2022-11-20T12:34:21.150Z,991.2
2022-11-20T12:36:04.823Z,990.1
2022-11-20T12:37:48.568Z,996.1
2022-11-20T12:39:32.178Z,1000.7
2022-11-20T12:41:15.751Z,1001.5
2022-11-20T12:42:59.658Z,1001.3
2022-11-20T12:44:43.338Z,1001.6
2022-11-20T12:46:26.998Z,1008.2
2022-11-20T12:48:10.691Z,1009.1
2022-11-20T12:49:54.461Z,1009.6
2022-11-20T12:51:38.196Z,1013
2022-11-20T12:53:21.819Z,1012.8
2022-11-20T12:55:05.570Z,1015.7
2022-11-20T12:56:49.277Z,1015.1
2022-11-20T12:58:32.972Z,1019.6
2022-11-20T13:00:16.665Z,1019.8
2022-11-20T13:02:00.319Z,1023.5
2022-11-20T13:03:44.074Z,1030.8
2022-11-20T13:05:27.718Z,1037
2022-11-20T13:07:11.326Z,1041
2022-11-20T13:08:54.999Z,1042.2
2022-11-20T13:10:38.781Z,1049.9
2022-11-20T13:12:22.537Z,1056.5
2022-11-20T13:14:06.165Z,1060.8
2022-11-20T13:15:49.888Z,1064.1
2022-11-20T13:17:33.634Z,1069.9
2022-11-20T13:19:17.259Z,1074.3
2022-11-20T13:21:00.892Z,1080.1
2022-11-20T13:22:44.718Z,1083.7
2022-11-20T13:24:28.513Z,1087
2022-11-20T13:26:12.010Z,1093.8
2022-11-20T13:27:55.722Z,1094.2
2022-11-20T13:29:39.409Z,1095.7
2022-11-20T13:31:23.111Z,1100.9
2022-11-20T13:33:06.866Z,1107.8
2022-11-20T13:34:50.601Z,1116.8
2022-11-20T13:36:34.347Z,1121.6
2022-11-20T13:38:17.999Z,1125.9
2022-11-20T13:40:01.726Z,1132.3
2022-11-20T13:41:45.332Z,1131.4
2022-11-20T13:43:29.060Z,1132.8
2022-11-20T13:45:12.781Z,1130.4
2022-11-20T13:46:56.528Z,1134.8
2022-11-20T13:48:40.132Z,1139.9
2022-11-20T13:50:23.957Z,1141.9
2022-11-20T13:52:07.536Z,1138.8
2022-11-20T13:53:51.248Z,1136.8
2022-11-20T13:55:34.960Z,1133.5
2022-11-20T13:57:18.624Z,1127.2
2022-11-20T13:59:02.326Z,1119.2
2022-11-20T14:00:46.173Z,1108
2022-11-20T14:02:29.771Z,1098.9
2022-11-20T14:04:13.562Z,1092.5
2022-11-20T14:05:57.161Z,1088.5
2022-11-20T14:07:40.878Z,1090
2022-11-20T14:09:24.520Z,1094.4
2022-11-20T14:11:08.223Z,1093.4
2022-11-20T14:12:51.956Z,1090.3
2022-11-20T14:14:35.708Z,1094
2022-11-20T14:16:19.453Z,1096.6
2022-11-20T14:18:03.152Z,1100.9
2022-11-20T14:19:46.772Z,1100.4
2022-11-20T14:21:30.441Z,1100.5
2022-11-20T14:23:14.130Z,1093.8
2022-11-20T14:24:57.921Z,1090.8
2022-11-20T14:26:41.565Z,1087.1
2022-11-20T14:28:25.290Z,1088.5
2022-11-20T14:30:08.932Z,1089.5
2022-11-20T14:31:52.638Z,1090.7
2022-11-20T14:33:36.434Z,1091.8
2022-11-20T14:35:20.067Z,1095.1
2022-11-20T14:37:03.735Z,1096.6
2022-11-20T14:38:47.557Z,1098.1
2022-11-20T14:40:31.181Z,1095.6
2022-11-20T14:42:14.864Z,1095.7
2022-11-20T14:43:58.676Z,1095.9
2022-11-20T14:45:42.244Z,1097.4
2022-11-20T14:47:25.963Z,1101.8
2022-11-20T14:49:09.736Z,1102.2
2022-11-20T14:50:53.341Z,1098.7
2022-11-20T14:52:37.097Z,1096
2022-11-20T14:54:20.930Z,1097.9
2022-11-20T14:56:04.536Z,1102.7
2022-11-20T14:57:48.337Z,1105.5
2022-11-20T14:59:31.935Z,1106.5
2022-11-20T15:01:15.579Z,1103.6
2022-11-20T15:02:59.301Z,1103.2
2022-11-20T15:06:26.671Z,1106
2022-11-20T15:08:10.394Z,1105.4
2022-11-20T15:09:54.064Z,1103.8
2022-11-20T15:11:37.844Z,1104.4
2022-11-20T15:13:21.533Z,1102.8
2022-11-20T15:15:05.203Z,1103.6
2022-11-20T15:16:48.879Z,1106.2
2022-11-20T15:18:32.734Z,1104.5
2022-11-20T15:20:16.279Z,1104
2022-11-20T15:21:59.986Z,1104.8
2022-11-20T15:23:43.691Z,1103.6
2022-11-20T15:25:27.529Z,1100.6
2022-11-20T15:27:11.201Z,1103.3
2022-11-20T15:28:54.932Z,1104.4
2022-11-20T15:30:38.621Z,1106.6
2022-11-20T15:32:22.191Z,1106.1
2022-11-20T15:34:06.040Z,1105.4
2022-11-20T15:35:49.773Z,1101
2022-11-20T15:37:33.503Z,1101.4
2022-11-20T15:39:17.012Z,1102.2
2022-11-20T15:41:00.834Z,1105
2022-11-20T15:42:44.508Z,1108
2022-11-20T15:44:28.240Z,1109.2
2022-11-20T15:46:11.969Z,1105.4
2022-11-20T15:47:55.655Z,1100.9
2022-11-20T15:49:39.417Z,1099.7
2022-11-20T15:51:23.072Z,1100.8
2022-11-20T15:53:06.711Z,1102.4
2022-11-20T15:54:50.418Z,1101.4
2022-11-20T15:56:34.022Z,1100
2022-11-20T15:58:17.786Z,1096.6
2022-11-20T16:00:01.460Z,1093.8
2022-11-20T16:01:45.191Z,1090.7
2022-11-20T16:03:28.953Z,1091.2
2022-11-20T16:05:12.561Z,1092
2022-11-20T16:06:56.369Z,1096.8
2022-11-20T16:08:39.968Z,1103
2022-11-20T16:10:23.691Z,1105.7
2022-11-20T16:12:07.418Z,1105.5
2022-11-20T16:13:51.069Z,1106.4
2022-11-20T16:15:34.755Z,1105
2022-11-20T16:17:18.586Z,1105.3
2022-11-20T16:19:02.206Z,1106.9
2022-11-20T16:20:45.850Z,1105.9
2022-11-20T16:22:29.542Z,1106.9
2022-11-20T16:24:13.377Z,1111.2
2022-11-20T16:25:57.142Z,1112.5
2022-11-20T16:27:40.671Z,1117.6
2022-11-20T16:29:24.364Z,1115.8
2022-11-20T16:31:08.115Z,1112.4
2022-11-20T16:32:51.848Z,1115.6
2022-11-20T16:34:35.585Z,1115.6
2022-11-20T16:36:19.174Z,1114.2
2022-11-20T16:38:02.905Z,1111.8
2022-11-20T16:39:46.600Z,1116.3
2022-11-20T16:41:30.332Z,1126.4
2022-11-20T16:43:13.992Z,1136.7
2022-11-20T16:44:57.764Z,1140.6
2022-11-20T16:46:41.396Z,1138.2
2022-11-20T16:48:25.087Z,1133.3
2022-11-20T16:50:08.862Z,1132.7
2022-11-20T16:51:52.475Z,1131.5
2022-11-20T16:53:36.252Z,1130.2
2022-11-20T16:55:20.014Z,1131.5
2022-11-20T16:57:03.679Z,1130.3
2022-11-20T16:58:47.293Z,1126.5
2022-11-20T17:00:31.006Z,1124.3
2022-11-20T17:02:14.718Z,1116.5
2022-11-20T17:03:58.488Z,1107.1
2022-11-20T17:05:42.185Z,1099.6
2022-11-20T17:07:25.929Z,1087.6
2022-11-20T17:09:09.624Z,1077.9
2022-11-20T17:10:53.282Z,1066.4
2022-11-20T17:12:36.947Z,1062.6
2022-11-20T17:14:20.609Z,1056.9
2022-11-20T17:16:04.327Z,1053.7
2022-11-20T17:17:48.078Z,1055.6
2022-11-20T17:19:31.744Z,1071.7
2022-11-20T17:21:15.536Z,1086.6
2022-11-20T17:22:59.228Z,1097.8
2022-11-20T17:24:42.828Z,1102.7
2022-11-20T17:26:26.657Z,1104.1
2022-11-20T17:28:10.316Z,1105.5
2022-11-20T17:29:53.938Z,1109.7
2022-11-20T17:31:37.705Z,1115.6
2022-11-20T17:33:21.343Z,1119.5
2022-11-20T17:35:05.194Z,1122.7
2022-11-20T17:36:48.776Z,1121.9
2022-11-20T17:38:32.458Z,1125.9
2022-11-20T17:40:16.151Z,1134.3
2022-11-20T17:41:59.849Z,1143.6
2022-11-20T17:43:43.555Z,1145.7
2022-11-20T17:45:27.252Z,1145.9
2022-11-20T17:47:11.028Z,1150.9
2022-11-20T17:48:54.762Z,1160.1
2022-11-20T17:50:38.370Z,1173.8
2022-11-20T17:52:22.060Z,1177.2
2022-11-20T17:54:05.809Z,1178.6
2022-11-20T17:55:49.481Z,1182.7
2022-11-20T17:57:33.223Z,1193.8
2022-11-20T17:59:16.929Z,1201.7
2022-11-20T18:01:00.700Z,1201.4
2022-11-20T18:02:44.294Z,1197.9
2022-11-20T18:04:27.997Z,1199.6
2022-11-20T18:06:11.663Z,1209.8
2022-11-20T18:07:55.574Z,1217.1
2022-11-20T18:09:39.082Z,1212.1
2022-11-20T18:11:22.883Z,1206.4
2022-11-20T18:13:06.560Z,1200.9
2022-11-20T18:14:50.409Z,1197.2
2022-11-20T18:16:33.981Z,1191.5
2022-11-20T18:18:17.602Z,1197.7
2022-11-20T18:20:01.328Z,1204.3
2022-11-20T18:21:45.024Z,1208.9
2022-11-20T18:23:28.807Z,1212.2
2022-11-20T18:25:12.388Z,1216.5
2022-11-20T18:26:56.230Z,1215.4
2022-11-20T18:28:39.789Z,1213
2022-11-20T18:30:23.671Z,1210.4
2022-11-20T18:32:07.384Z,1202.8
2022-11-20T18:33:51.159Z,1199.6
2022-11-20T18:35:34.751Z,1203.9
2022-11-20T18:37:18.500Z,1208
2022-11-20T18:39:02.103Z,1210.1
2022-11-20T18:40:45.885Z,1212.2
2022-11-20T18:42:29.553Z,1209.3
2022-11-20T18:44:13.320Z,1207
2022-11-20T18:45:56.951Z,1204.9
2022-11-20T18:47:40.498Z,1202.7
2022-11-20T18:49:24.186Z,1200.5
2022-11-20T18:51:07.976Z,1198.5
2022-11-20T18:52:51.779Z,1198.8
2022-11-20T18:54:35.294Z,1194
2022-11-20T18:56:19.178Z,1190.8
2022-11-20T18:58:02.696Z,1191.4
2022-11-20T18:59:46.541Z,1190.1
2022-11-20T19:01:30.115Z,1190.3
2022-11-20T19:03:13.978Z,1189.4
2022-11-20T19:04:57.520Z,1189.9
2022-11-20T19:06:41.266Z,1189.4
2022-11-20T19:08:24.943Z,1192.3
2022-11-20T19:10:08.757Z,1192.8
2022-11-20T19:11:52.324Z,1193.6
2022-11-20T19:13:36.070Z,1196.1
2022-11-20T19:15:19.746Z,1197.2
2022-11-20T19:17:03.447Z,1196.1
2022-11-20T19:18:47.331Z,1192.9
2022-11-20T19:20:31.003Z,1189
2022-11-20T19:22:14.704Z,1182.7
2022-11-20T19:23:58.406Z,1179.1
2022-11-20T19:25:41.961Z,1176.4
2022-11-20T19:27:25.680Z,1172.5
2022-11-20T19:29:09.329Z,1169.9
2022-11-20T19:30:53.201Z,1164.3
2022-11-20T19:32:36.933Z,1160.7
2022-11-20T19:34:20.619Z,1157
2022-11-20T19:36:04.287Z,1160
2022-11-20T19:37:48.038Z,1158
2022-11-20T19:39:31.714Z,1159.1
2022-11-20T19:41:15.421Z,1161
2022-11-20T19:42:59.119Z,1164.2
2022-11-20T19:44:42.828Z,1163.2
2022-11-20T19:46:26.519Z,1160.1
2022-11-20T19:48:10.054Z,1156.2
2022-11-20T19:49:53.764Z,1156.4
2022-11-20T19:51:37.467Z,1153.7
2022-11-20T19:53:21.181Z,1152
2022-11-20T19:55:04.929Z,1151.8
2022-11-20T19:56:48.624Z,1155.5
2022-11-20T19:58:32.389Z,1158.4
2022-11-20T20:00:16.159Z,1158
2022-11-20T20:01:59.833Z,1155.6
2022-11-20T20:03:43.570Z,1158.5
2022-11-20T20:05:27.081Z,1158.8
2022-11-20T20:07:10.841Z,1156.2
2022-11-20T20:08:54.649Z,1155.4
2022-11-20T20:10:38.373Z,1156.1
2022-11-20T20:12:22.067Z,1155.9
2022-11-20T20:14:05.753Z,1152
2022-11-20T20:15:49.300Z,1150.6
2022-11-20T20:17:32.745Z,1145.7
2022-11-20T20:19:16.548Z,1143.4
2022-11-20T20:21:00.207Z,1143.5
2022-11-20T20:22:43.951Z,1141.3
2022-11-20T20:24:27.687Z,1138.2
2022-11-20T20:26:11.366Z,1134.5
2022-11-20T20:27:55.001Z,1131.1
2022-11-20T20:29:38.631Z,1130.5
2022-11-20T20:31:22.430Z,1126.2
2022-11-20T20:33:06.010Z,1125.2
2022-11-20T20:34:49.875Z,1124.5
2022-11-20T20:36:33.453Z,1126.7
2022-11-20T20:38:17.164Z,1129.2
2022-11-20T20:40:00.884Z,1127.7
2022-11-20T20:41:44.663Z,1131.2
2022-11-20T20:43:28.352Z,1131.3
2022-11-20T20:45:11.970Z,1130.8
2022-11-20T20:46:55.823Z,1130.8
2022-11-20T20:48:39.426Z,1129.9
2022-11-20T20:50:23.144Z,1129.2
2022-11-20T20:52:06.935Z,1128.2
2022-11-20T20:53:50.425Z,1130.6
2022-11-20T20:55:34.137Z,1133.7
2022-11-20T20:57:17.851Z,1135.4
2022-11-20T20:59:01.556Z,1133.6
2022-11-20T21:00:45.254Z,1133.3
2022-11-20T21:02:28.957Z,1134.3
2022-11-20T21:04:12.651Z,1134.6
2022-11-20T21:05:56.351Z,1136.7
2022-11-20T21:07:40.049Z,1138.4
2022-11-20T21:09:23.764Z,1140
2022-11-20T21:11:07.451Z,1140.6
2022-11-20T21:14:34.856Z,1131.4
2022-11-20T21:16:18.557Z,1130.3
2022-11-20T21:18:02.258Z,1129.8
2022-11-20T21:19:45.960Z,1130.6
2022-11-20T21:21:29.721Z,1128
2022-11-20T21:23:13.361Z,1125.6
2022-11-20T21:24:57.060Z,1124.7
2022-11-20T21:26:40.758Z,1127.1
2022-11-20T21:28:24.457Z,1124.4
2022-11-20T21:30:08.172Z,1124.1
2022-11-20T21:31:51.880Z,1127.3
2022-11-20T21:33:35.579Z,1125.1
2022-11-20T21:35:19.284Z,1122.8
2022-11-20T21:37:02.980Z,1121.1
2022-11-20T21:38:46.706Z,1121.6
2022-11-20T21:40:30.387Z,1118.3
2022-11-20T21:42:14.082Z,1117.9
2022-11-20T21:43:57.790Z,1117.8
2022-11-20T21:45:41.496Z,1118.3
2022-11-20T21:47:25.196Z,1120.3
2022-11-20T21:49:08.878Z,1125.7
2022-11-20T21:50:52.601Z,1127.1
2022-11-20T21:52:36.333Z,1127.8
2022-11-20T21:54:19.999Z,1126.5
2022-11-20T21:56:03.696Z,1125.2
2022-11-20T21:57:47.396Z,1126
2022-11-20T21:59:31.106Z,1124.9
2022-11-20T22:01:14.813Z,1125.3
2022-11-20T22:02:58.505Z,1123.1
2022-11-20T22:04:42.211Z,1125.9
2022-11-20T22:06:25.930Z,1130.7
2022-11-20T22:08:09.622Z,1128.5
2022-11-20T22:09:53.313Z,1129.6
2022-11-20T22:11:37.024Z,1125.5